Robinson, North Dakota
Current Conditions -  °F | °C
As of 6:55 AM on Tuesday 21 Oct 2014 (Local Time) from K46D Reporting Station
Haze Haze  
Wind Chill: 37°   Ceiling: Unl
Heat Index: 45°   Visibility: 2.5mi
Dew Point: 41°   Wind: 16mph
Humidity: 87%   Direction: 140°SE
Pressure: 29.93"   Gusts: NA
Location:  47.14°N, 99.78°W
Report Text: K46D 211155Z AUTO 14014KT 2 1/2SM BR CLR 07/05 A2993 RMK AO2
Loading
Personal Weather Stations






























Interactive Weather Map New forecast layout! Learn more

10-Day Weather Forecast

Advertisements
Track Severe Weather on mobile